Time;durP1;ratioP1;P1;durP2;ratioP2;P2;SDS_P1;SDS_P2;PMS_P1;PMS_P2;Temp;Humidity;BMP_temperature;BMP_pressure;BME280_temperature;BME280_humidity;BME280_pressure;Samples;Min_cycle;Max_cycle;Signal;HPM_P1;HPM_P2
2022/08/10 00:01:03;;;;;;;0.50;0.30;;;19.50;99.90;;;;;;5073559;28;20439;-77
2022/08/10 00:03:30;;;;;;;0.50;0.40;;;19.50;99.90;;;;;;5073491;28;20436;-78
2022/08/10 00:05:58;;;;;;;0.50;0.40;;;19.50;99.90;;;;;;5072868;28;20948;-77
2022/08/10 00:08:25;;;;;;;0.50;0.40;;;19.40;99.90;;;;;;5073191;28;20450;-77
2022/08/10 00:10:52;;;;;;;0.50;0.30;;;19.40;99.90;;;;;;5073720;28;20440;-77
2022/08/10 00:13:19;;;;;;;0.50;0.30;;;19.30;99.90;;;;;;5073250;28;20436;-77
2022/08/10 00:15:46;;;;;;;0.50;0.30;;;19.30;99.90;;;;;;5073066;28;20446;-77
2022/08/10 00:18:13;;;;;;;0.50;0.30;;;19.30;99.90;;;;;;5072827;28;20483;-77
2022/08/10 00:20:40;;;;;;;0.50;0.30;;;19.30;99.90;;;;;;5072632;28;20436;-77
2022/08/10 00:23:08;;;;;;;0.50;0.30;;;19.20;99.90;;;;;;5073023;28;20872;-78
2022/08/10 00:25:36;;;;;;;0.50;0.40;;;19.10;99.90;;;;;;5072831;28;20432;-77
2022/08/10 00:28:03;;;;;;;0.50;0.30;;;19.10;99.90;;;;;;5072714;28;21191;-75
2022/08/10 00:30:30;;;;;;;0.50;0.30;;;19.00;99.90;;;;;;5072850;28;20523;-78
2022/08/10 00:32:57;;;;;;;0.50;0.30;;;19.00;99.90;;;;;;5072301;28;20523;-76
2022/08/10 00:35:24;;;;;;;0.50;0.40;;;19.00;99.90;;;;;;5072470;28;20817;-77
2022/08/10 00:37:51;;;;;;;0.50;0.40;;;19.00;99.90;;;;;;5072813;28;20476;-77
2022/08/10 00:40:19;;;;;;;0.50;0.40;;;19.00;99.90;;;;;;5072612;28;20941;-77
2022/08/10 00:42:46;;;;;;;0.50;0.30;;;18.90;99.90;;;;;;5072692;28;20531;-77
2022/08/10 00:45:13;;;;;;;0.50;0.30;;;18.90;99.90;;;;;;5072460;28;20827;-74
2022/08/10 00:47:40;;;;;;;0.50;0.30;;;18.80;99.90;;;;;;5072401;28;20456;-76
2022/08/10 00:50:08;;;;;;;0.50;0.30;;;18.80;99.90;;;;;;5072254;28;20471;-77
2022/08/10 00:52:37;;;;;;;0.50;0.40;;;18.70;99.90;;;;;;5072738;28;20443;-77
2022/08/10 00:55:05;;;;;;;0.50;0.40;;;18.70;99.90;;;;;;5072318;28;20450;-78
2022/08/10 00:57:34;;;;;;;0.50;0.40;;;18.60;99.90;;;;;;5072435;28;20491;-78
2022/08/10 01:00:01;;;;;;;0.50;0.40;;;18.50;99.90;;;;;;5072556;28;20437;-78
2022/08/10 01:02:31;;;;;;;0.50;0.37;;;18.50;99.90;;;;;;5072391;28;20463;-77
2022/08/10 01:05:00;;;;;;;0.50;0.40;;;18.50;99.90;;;;;;5071627;28;20435;-77
2022/08/10 01:07:53;;;;;;;0.50;0.40;;;18.50;99.90;;;;;;5072001;28;20990;-77
2022/08/10 01:10:32;;;;;;;0.50;0.30;;;18.40;99.90;;;;;;5066833;28;20448;-76
2022/08/10 01:13:09;;;;;;;0.50;0.30;;;18.40;99.90;;;;;;5071827;28;20799;-76
2022/08/10 01:15:47;;;;;;;0.50;0.37;;;18.30;99.90;;;;;;5071793;28;20432;-76
2022/08/10 01:18:18;;;;;;;0.50;0.40;;;18.30;99.90;;;;;;5058062;28;20484;-77
2022/08/10 01:20:59;;;;;;;0.50;0.30;;;18.30;99.90;;;;;;5071680;28;20421;-77
2022/08/10 01:23:53;;;;;;;0.50;0.37;;;18.20;99.90;;;;;;5071870;28;20440;-77
2022/08/10 01:26:33;;;;;;;0.50;0.40;;;18.20;99.90;;;;;;5073484;28;20480;-77
2022/08/10 01:29:21;;;;;;;0.97;0.87;;;18.10;99.90;;;;;;5062546;28;20439;-77
2022/08/10 01:31:53;;;;;;;0.50;0.40;;;18.20;99.90;;;;;;5071667;28;20436;-76
2022/08/10 01:34:23;;;;;;;0.50;0.30;;;18.10;99.90;;;;;;5071364;28;20450;-77
2022/08/10 01:36:53;;;;;;;0.50;0.30;;;18.10;99.90;;;;;;5071764;28;20482;-77
2022/08/10 01:39:23;;;;;;;0.50;0.40;;;18.10;99.90;;;;;;5071570;28;20817;-77
2022/08/10 01:41:54;;;;;;;0.50;0.40;;;18.20;99.90;;;;;;5071887;28;20432;-78
2022/08/10 01:44:29;;;;;;;0.50;0.40;;;18.10;99.90;;;;;;5071526;28;20427;-77
2022/08/10 01:48:27;;;;;;;0.50;0.30;;;18.00;99.90;;;;;;5071068;28;20470;-77
2022/08/10 01:49:49;;;;;;;0.50;0.40;;;18.00;99.90;;;;;;5070944;28;20508;-77
2022/08/10 01:52:20;;;;;;;0.50;0.30;;;17.90;99.90;;;;;;5071436;28;20997;-77
2022/08/10 01:54:49;;;;;;;0.50;0.40;;;17.80;99.90;;;;;;5071442;28;20428;-78
2022/08/10 01:57:17;;;;;;;0.50;0.30;;;17.70;99.90;;;;;;5071395;28;20476;-77
2022/08/10 01:59:45;;;;;;;0.50;0.40;;;17.70;99.90;;;;;;5071252;28;20947;-77
2022/08/10 02:02:17;;;;;;;0.50;0.37;;;17.60;99.90;;;;;;5070720;28;20539;-77
2022/08/10 02:04:47;;;;;;;0.50;0.37;;;17.50;99.90;;;;;;5071383;28;20450;-77
2022/08/10 02:07:18;;;;;;;0.50;0.30;;;17.50;99.90;;;;;;5071416;28;20874;-76
2022/08/10 02:09:54;;;;;;;0.50;0.40;;;17.40;99.90;;;;;;5071535;28;20522;-77
2022/08/10 02:12:26;;;;;;;0.50;0.30;;;17.40;99.90;;;;;;5071580;28;20837;-77
2022/08/10 02:14:56;;;;;;;0.50;0.40;;;17.40;99.90;;;;;;5070534;28;20916;-77
2022/08/10 02:17:28;;;;;;;0.50;0.40;;;17.30;99.90;;;;;;5071251;28;20560;-77
2022/08/10 02:19:59;;;;;;;0.50;0.30;;;17.30;99.90;;;;;;5071469;28;20507;-77
2022/08/10 02:22:27;;;;;;;0.50;0.40;;;17.30;99.90;;;;;;5071029;28;20420;-77
2022/08/10 02:24:55;;;;;;;0.50;0.40;;;17.30;99.90;;;;;;5070462;28;20443;-76
2022/08/10 02:27:24;;;;;;;0.50;0.40;;;17.20;99.90;;;;;;5071163;28;20461;-76
2022/08/10 02:29:53;;;;;;;0.50;0.30;;;17.10;99.90;;;;;;5071018;28;20933;-77
2022/08/10 02:32:22;;;;;;;0.50;0.40;;;17.10;99.90;;;;;;5071279;28;20436;-77
2022/08/10 02:34:52;;;;;;;0.50;0.40;;;17.10;99.90;;;;;;5070469;28;20443;-77
2022/08/10 02:37:24;;;;;;;0.50;0.40;;;17.10;99.90;;;;;;5070601;28;20976;-77
2022/08/10 02:39:51;;;;;;;0.50;0.40;;;17.10;99.90;;;;;;5071209;28;20431;-77
2022/08/10 02:42:23;;;;;;;0.60;0.57;;;17.10;99.90;;;;;;5071140;28;20436;-77
2022/08/10 02:44:57;;;;;;;0.50;0.40;;;17.10;99.90;;;;;;5070901;28;20422;-77
2022/08/10 02:47:28;;;;;;;0.50;0.40;;;17.20;99.90;;;;;;5070954;28;20462;-77
2022/08/10 02:50:03;;;;;;;0.50;0.40;;;17.20;99.90;;;;;;5070586;28;20436;-77
2022/08/10 02:52:38;;;;;;;0.50;0.40;;;17.20;99.90;;;;;;5071027;28;20435;-77
2022/08/10 02:55:13;;;;;;;0.50;0.30;;;17.20;99.90;;;;;;5070094;28;20438;-77
2022/08/10 02:57:43;;;;;;;0.50;0.40;;;17.10;99.90;;;;;;5073682;28;20478;-78
2022/08/10 03:00:11;;;;;;;0.50;0.40;;;17.10;99.90;;;;;;5074186;28;20420;-77
2022/08/10 03:02:41;;;;;;;0.50;0.40;;;17.20;99.90;;;;;;5074698;28;20443;-77
2022/08/10 03:05:12;;;;;;;0.50;0.40;;;17.10;99.90;;;;;;5074121;28;20436;-77
2022/08/10 03:07:45;;;;;;;0.50;0.30;;;17.00;99.90;;;;;;5074390;28;20980;-77
2022/08/10 03:10:16;;;;;;;0.50;0.40;;;17.00;99.90;;;;;;5074171;28;20423;-77
2022/08/10 03:12:43;;;;;;;0.50;0.33;;;17.00;99.90;;;;;;5074261;28;20424;-77
2022/08/10 03:15:13;;;;;;;0.50;0.40;;;17.00;99.90;;;;;;5074155;28;20438;-77
2022/08/10 03:17:41;;;;;;;0.50;0.40;;;16.90;99.90;;;;;;5128040;22;20504;-76
2022/08/10 03:20:10;;;;;;;0.50;0.40;;;16.90;99.90;;;;;;5058231;28;20443;-77
2022/08/10 03:22:39;;;;;;;0.50;0.30;;;16.80;99.90;;;;;;5070955;28;20538;-78
2022/08/10 03:25:08;;;;;;;0.60;0.60;;;16.70;99.90;;;;;;5074166;28;20522;-77
2022/08/10 03:27:35;;;;;;;0.50;0.40;;;16.70;99.90;;;;;;5074764;28;20545;-76
2022/08/10 03:30:02;;;;;;;0.50;0.40;;;16.70;99.90;;;;;;5073916;28;20778;-76
2022/08/10 03:32:30;;;;;;;0.50;0.40;;;16.70;99.90;;;;;;5074063;28;20431;-77
2022/08/10 03:34:58;;;;;;;0.50;0.40;;;16.60;99.90;;;;;;5074320;28;20432;-78
2022/08/10 03:37:27;;;;;;;5.27;4.73;;;16.60;99.90;;;;;;5073999;28;20483;-76
2022/08/10 03:39:54;;;;;;;0.50;0.40;;;16.60;99.90;;;;;;5074299;28;20450;-77
2022/08/10 03:42:23;;;;;;;0.50;0.40;;;16.60;99.90;;;;;;5074257;28;20432;-76
2022/08/10 03:44:51;;;;;;;0.50;0.40;;;16.60;99.90;;;;;;5073812;28;20440;-76
2022/08/10 03:47:20;;;;;;;0.50;0.40;;;16.60;99.90;;;;;;5074000;28;20471;-76
2022/08/10 03:49:48;;;;;;;0.50;0.40;;;16.60;99.90;;;;;;5074332;28;20439;-77
2022/08/10 03:52:16;;;;;;;0.50;0.40;;;16.60;99.90;;;;;;5074353;28;20443;-75
2022/08/10 03:54:45;;;;;;;0.50;0.40;;;16.60;99.90;;;;;;5073500;28;20432;-78
2022/08/10 03:57:13;;;;;;;0.50;0.40;;;16.60;99.90;;;;;;5074059;28;20483;-75
2022/08/10 03:59:40;;;;;;;0.50;0.40;;;16.50;99.90;;;;;;5073762;28;20444;-78
2022/08/10 04:02:07;;;;;;;0.50;0.40;;;16.50;99.90;;;;;;5073899;28;20446;-78
2022/08/10 04:04:34;;;;;;;0.50;0.40;;;16.50;99.90;;;;;;5073755;28;20522;-77
2022/08/10 04:07:03;;;;;;;0.50;0.30;;;16.50;99.90;;;;;;5074145;28;20436;-78
2022/08/10 04:09:31;;;;;;;0.50;0.40;;;16.50;99.90;;;;;;5072675;28;20446;-78
2022/08/10 04:12:00;;;;;;;1.83;1.73;;;16.40;99.90;;;;;;5072986;28;20436;-78
2022/08/10 04:14:26;;;;;;;0.50;0.30;;;16.40;99.90;;;;;;5072553;28;20446;-78
2022/08/10 04:16:53;;;;;;;0.50;0.40;;;16.40;99.90;;;;;;5073100;28;20441;-77
2022/08/10 04:19:22;;;;;;;0.50;0.40;;;16.40;99.90;;;;;;5062291;28;20973;-77
2022/08/10 04:21:56;;;;;;;0.50;0.40;;;16.40;99.90;;;;;;5066441;28;20537;-77
2022/08/10 04:24:26;;;;;;;1.37;1.27;;;16.40;99.90;;;;;;5069954;28;20532;-77
2022/08/10 04:26:53;;;;;;;0.53;0.50;;;16.50;99.90;;;;;;5073010;28;20440;-77
2022/08/10 04:29:21;;;;;;;0.50;0.50;;;16.50;99.90;;;;;;5072731;28;20487;-77
2022/08/10 04:31:50;;;;;;;0.50;0.40;;;16.50;99.90;;;;;;5072572;28;20437;-79
2022/08/10 04:34:17;;;;;;;0.50;0.40;;;16.60;99.90;;;;;;5072479;28;20996;-78
2022/08/10 04:36:45;;;;;;;0.50;0.40;;;16.60;99.90;;;;;;5073895;28;20445;-79
2022/08/10 04:39:12;;;;;;;0.83;0.80;;;16.70;99.90;;;;;;5074673;28;20448;-78
2022/08/10 04:41:40;;;;;;;0.50;0.40;;;16.70;99.90;;;;;;5073975;28;20440;-77
2022/08/10 04:44:07;;;;;;;0.50;0.40;;;16.80;99.90;;;;;;5073248;28;20523;-78
2022/08/10 04:46:36;;;;;;;0.50;0.40;;;16.80;99.90;;;;;;5073058;28;20451;-78
2022/08/10 04:49:02;;;;;;;0.50;0.40;;;16.80;99.90;;;;;;5073049;28;20501;-79
2022/08/10 04:51:29;;;;;;;0.50;0.40;;;16.80;99.90;;;;;;5072887;28;20436;-77
2022/08/10 04:53:56;;;;;;;0.70;0.70;;;16.90;99.90;;;;;;5072305;28;20836;-77
2022/08/10 04:56:23;;;;;;;0.50;0.40;;;16.90;99.90;;;;;;5072059;28;20446;-78
2022/08/10 04:58:50;;;;;;;0.50;0.40;;;16.90;99.90;;;;;;5072257;28;20455;-77
2022/08/10 05:01:16;;;;;;;0.50;0.40;;;17.00;99.90;;;;;;5072305;28;20457;-77
2022/08/10 05:03:44;;;;;;;0.50;0.40;;;17.00;99.90;;;;;;5071884;28;20436;-77
2022/08/10 05:06:11;;;;;;;0.50;0.40;;;17.00;99.90;;;;;;5071958;28;20524;-77
2022/08/10 05:08:38;;;;;;;0.50;0.33;;;17.00;99.90;;;;;;5071862;28;20476;-77
2022/08/10 05:11:05;;;;;;;0.50;0.40;;;17.00;99.90;;;;;;5071895;28;20541;-75
2022/08/10 05:13:32;;;;;;;1.00;0.90;;;17.10;99.90;;;;;;5072204;28;20547;-77
2022/08/10 05:15:59;;;;;;;0.57;0.40;;;17.10;99.90;;;;;;5071646;28;20805;-76
2022/08/10 05:18:25;;;;;;;0.60;0.60;;;17.10;99.90;;;;;;5071737;28;20552;-77
2022/08/10 05:20:54;;;;;;;0.50;0.40;;;17.20;99.90;;;;;;5071613;28;20717;-75
2022/08/10 05:23:20;;;;;;;0.50;0.33;;;17.20;99.90;;;;;;5071650;28;20444;-76
2022/08/10 05:25:47;;;;;;;0.50;0.40;;;17.30;99.90;;;;;;5071538;28;20538;-76
2022/08/10 05:28:14;;;;;;;0.50;0.40;;;17.30;99.90;;;;;;5071636;28;20475;-77
2022/08/10 05:30:41;;;;;;;0.77;0.77;;;17.50;99.90;;;;;;5071889;28;20532;-78
2022/08/10 05:33:08;;;;;;;0.50;0.40;;;17.60;99.90;;;;;;5071456;28;20447;-77
2022/08/10 05:35:37;;;;;;;0.50;0.30;;;17.60;99.90;;;;;;5072119;28;20804;-76
2022/08/10 05:38:09;;;;;;;0.50;0.30;;;17.80;99.90;;;;;;5073174;28;21078;-78
2022/08/10 05:40:38;;;;;;;0.50;0.40;;;17.90;99.90;;;;;;5071482;28;20441;-79
2022/08/10 05:43:05;;;;;;;7.43;2.00;;;18.00;99.90;;;;;;5072500;28;20447;-75
2022/08/10 05:45:32;;;;;;;0.50;0.40;;;18.00;99.90;;;;;;5071840;28;20444;-79
2022/08/10 05:47:59;;;;;;;0.63;0.60;;;18.10;99.90;;;;;;5076029;28;20504;-78
2022/08/10 05:50:29;;;;;;;0.50;0.30;;;18.20;99.90;;;;;;5077387;28;20630;-78
2022/08/10 05:52:57;;;;;;;0.50;0.30;;;18.30;99.90;;;;;;5077816;28;20445;-76
2022/08/10 05:55:29;;;;;;;0.60;0.60;;;18.40;99.90;;;;;;5075446;28;20444;-77
2022/08/10 05:57:56;;;;;;;0.50;0.30;;;18.50;99.90;;;;;;5076280;28;20474;-73
2022/08/10 06:00:25;;;;;;;0.50;0.30;;;18.60;99.90;;;;;;5075237;28;20436;-78
2022/08/10 06:02:55;;;;;;;0.50;0.40;;;18.80;99.90;;;;;;5075025;28;20527;-77
2022/08/10 06:05:25;;;;;;;0.50;0.30;;;19.10;99.90;;;;;;5073008;28;20908;-77
2022/08/10 06:07:57;;;;;;;1.00;0.60;;;20.10;99.90;;;;;;5074781;28;20452;-78
2022/08/10 06:10:27;;;;;;;0.50;0.30;;;21.50;99.90;;;;;;5076110;28;20447;-77
2022/08/10 06:15:38;;;;;;;0.50;0.30;;;23.60;99.90;;;;;;5073814;28;20491;-78
2022/08/10 06:18:05;;;;;;;0.50;0.30;;;24.50;99.90;;;;;;5075350;28;20460;-78
2022/08/10 06:20:32;;;;;;;1.97;1.13;;;25.00;99.90;;;;;;5075417;28;20441;-78
2022/08/10 06:23:01;;;;;;;0.70;0.50;;;25.80;99.90;;;;;;5075566;28;20443;-78
2022/08/10 06:25:30;;;;;;;0.50;0.30;;;26.50;99.90;;;;;;5074106;28;20527;-78
2022/08/10 06:27:59;;;;;;;2.33;2.23;;;27.40;99.90;;;;;;5073213;28;20452;-75
2022/08/10 06:30:27;;;;;;;0.70;0.67;;;28.70;92.60;;;;;;5071443;28;20497;-74
2022/08/10 06:32:56;;;;;;;0.50;0.30;;;29.40;88.10;;;;;;5074690;28;20817;-78
2022/08/10 06:35:27;;;;;;;0.50;0.30;;;29.90;78.80;;;;;;5074739;28;20496;-77
2022/08/10 06:37:57;;;;;;;0.50;0.30;;;29.80;80.00;;;;;;5074662;28;20976;-77
2022/08/10 06:40:27;;;;;;;1.17;0.80;;;30.30;74.30;;;;;;5074603;28;20440;-78
2022/08/10 06:42:57;;;;;;;0.50;0.30;;;30.60;72.30;;;;;;5075347;28;20506;-77
2022/08/10 06:45:32;;;;;;;0.50;0.30;;;30.90;70.60;;;;;;5074797;28;20475;-79
2022/08/10 06:48:02;;;;;;;0.50;0.40;;;31.20;69.80;;;;;;5075173;28;20544;-77
2022/08/10 06:50:35;;;;;;;0.50;0.30;;;31.10;67.50;;;;;;5074766;28;20925;-76
2022/08/10 06:53:03;;;;;;;0.50;0.30;;;31.10;69.50;;;;;;5074654;28;20451;-76
2022/08/10 06:55:31;;;;;;;0.53;0.47;;;31.70;66.80;;;;;;5074435;28;20955;-78
2022/08/10 06:58:01;;;;;;;0.50;0.30;;;32.30;64.80;;;;;;5074384;28;20555;-74
2022/08/10 07:00:32;;;;;;;0.50;0.30;;;32.60;64.10;;;;;;5074789;28;20818;-77
2022/08/10 07:03:06;;;;;;;0.50;0.30;;;33.40;63.00;;;;;;5073880;28;20941;-77
2022/08/10 07:05:37;;;;;;;0.50;0.30;;;33.70;61.10;;;;;;5073888;28;20424;-75
2022/08/10 07:08:06;;;;;;;0.50;0.30;;;34.70;60.90;;;;;;5073858;28;20820;-77
2022/08/10 07:10:34;;;;;;;0.50;0.30;;;35.80;56.80;;;;;;5074340;28;20446;-77
2022/08/10 07:13:04;;;;;;;0.50;0.30;;;35.70;56.00;;;;;;5074238;28;20444;-75
2022/08/10 07:15:31;;;;;;;0.50;0.30;;;36.10;56.80;;;;;;5073672;28;20440;-78
2022/08/10 07:18:00;;;;;;;0.50;0.30;;;36.90;53.80;;;;;;5073704;28;21010;-73
2022/08/10 07:20:28;;;;;;;0.50;0.30;;;36.70;52.60;;;;;;5073813;28;20446;-77
2022/08/10 07:22:56;;;;;;;0.40;0.30;;;36.50;51.90;;;;;;5073637;28;20450;-76
2022/08/10 07:25:25;;;;;;;0.40;0.30;;;36.30;52.00;;;;;;5073279;28;21040;-77
2022/08/10 07:27:53;;;;;;;1.03;0.70;;;36.50;51.80;;;;;;5073656;28;20821;-78
2022/08/10 07:30:21;;;;;;;0.50;0.30;;;36.30;53.50;;;;;;5073901;28;20476;-78
2022/08/10 07:32:50;;;;;;;0.50;0.30;;;36.80;51.90;;;;;;5073883;28;20533;-78
2022/08/10 07:35:18;;;;;;;0.50;0.30;;;37.20;53.00;;;;;;5073352;28;20525;-78
2022/08/10 07:37:48;;;;;;;0.50;0.50;;;37.80;50.50;;;;;;5073706;28;20897;-78
2022/08/10 07:40:17;;;;;;;0.40;0.30;;;38.30;49.80;;;;;;5073622;28;20478;-78
2022/08/10 07:42:47;;;;;;;0.43;0.30;;;38.30;49.00;;;;;;5072698;28;20447;-79
2022/08/10 07:45:14;;;;;;;0.40;0.30;;;38.40;49.20;;;;;;5072940;28;20527;-78
2022/08/10 07:47:46;;;;;;;0.40;0.30;;;38.30;48.90;;;;;;5073773;28;20452;-78
2022/08/10 07:50:16;;;;;;;0.40;0.30;;;38.40;48.00;;;;;;5073387;28;20952;-78
2022/08/10 07:52:45;;;;;;;0.40;0.40;;;38.00;48.50;;;;;;5073683;28;20444;-78
2022/08/10 07:55:16;;;;;;;0.40;0.30;;;38.10;49.20;;;;;;5072999;28;20444;-78
2022/08/10 07:57:46;;;;;;;0.40;0.30;;;38.40;48.40;;;;;;5073431;28;20478;-80
2022/08/10 08:00:15;;;;;;;0.40;0.30;;;39.00;48.20;;;;;;5073699;28;20614;-78
2022/08/10 08:02:48;;;;;;;0.40;0.30;;;38.90;47.20;;;;;;5072775;28;20541;-79
2022/08/10 08:05:16;;;;;;;0.40;0.30;;;38.60;47.20;;;;;;5072560;28;20440;-78
2022/08/10 08:07:45;;;;;;;0.80;0.50;;;39.10;47.00;;;;;;5073110;28;20460;-78
2022/08/10 08:10:16;;;;;;;0.40;0.30;;;39.40;46.50;;;;;;5073167;28;20432;-78
2022/08/10 08:12:44;;;;;;;0.67;0.40;;;39.60;47.20;;;;;;5073143;28;20460;-77
2022/08/10 08:15:15;;;;;;;0.40;0.30;;;40.10;47.20;;;;;;5072270;28;20448;-78
2022/08/10 08:17:45;;;;;;;0.40;0.30;;;40.30;44.50;;;;;;5072509;28;20463;-78
2022/08/10 08:20:14;;;;;;;0.40;0.30;;;39.60;46.50;;;;;;5072668;28;20478;-80
2022/08/10 08:22:43;;;;;;;4.00;1.57;;;40.20;46.20;;;;;;5072928;28;20467;-77
2022/08/10 08:25:11;;;;;;;0.40;0.30;;;40.60;44.20;;;;;;5071939;28;20440;-76
2022/08/10 08:27:40;;;;;;;0.50;0.50;;;40.40;43.80;;;;;;5072279;28;20458;-78
2022/08/10 08:30:09;;;;;;;0.50;0.50;;;40.10;44.30;;;;;;5072777;28;20436;-78
2022/08/10 08:32:38;;;;;;;0.40;0.30;;;40.10;44.60;;;;;;5072734;28;20440;-77
2022/08/10 08:35:09;;;;;;;0.40;0.30;;;40.60;44.70;;;;;;5072596;28;20451;-78
2022/08/10 08:37:37;;;;;;;0.40;0.30;;;40.80;43.40;;;;;;5071723;28;20543;-77
2022/08/10 08:40:06;;;;;;;0.40;0.30;;;40.90;44.70;;;;;;5072042;28;20475;-79
2022/08/10 08:42:54;;;;;;;0.40;0.30;;;41.40;44.60;;;;;;5072426;28;20527;-76
2022/08/10 08:45:28;;;;;;;0.40;0.30;;;42.10;43.50;;;;;;5072576;28;20427;-77
2022/08/10 08:48:37;;;;;;;0.73;0.70;;;43.00;41.50;;;;;;5072243;28;20459;-77
2022/08/10 08:51:18;;;;;;;0.40;0.30;;;42.60;42.30;;;;;;5042821;28;20440;-76
2022/08/10 08:53:58;;;;;;;0.40;0.30;;;42.40;42.40;;;;;;5072150;28;20425;-76
2022/08/10 08:56:29;;;;;;;0.40;0.30;;;42.90;42.10;;;;;;5071670;28;20909;-75
2022/08/10 08:59:10;;;;;;;0.40;0.30;;;42.90;42.00;;;;;;5071762;28;20480;-75
2022/08/10 09:01:54;;;;;;;1.90;0.93;;;43.80;41.10;;;;;;5072489;28;20507;-75
2022/08/10 09:04:37;;;;;;;0.40;0.30;;;43.90;40.60;;;;;;5071804;28;20443;-74
2022/08/10 09:07:34;;;;;;;0.40;0.30;;;43.80;40.70;;;;;;5072273;28;20431;-76
2022/08/10 09:10:07;;;;;;;0.40;0.30;;;43.10;39.20;;;;;;5065194;28;20440;-73
2022/08/10 09:12:53;;;;;;;0.50;0.30;;;42.30;39.90;;;;;;5072214;28;20427;-76
2022/08/10 09:15:29;;;;;;;0.40;0.30;;;41.70;40.50;;;;;;5071847;28;20499;-76
2022/08/10 09:20:36;;;;;;;0.40;0.30;;;40.50;41.70;;;;;;5061451;28;20472;-77
2022/08/10 09:23:13;;;;;;;0.40;0.30;;;41.20;42.80;;;;;;5071628;28;20416;-75
2022/08/10 09:25:49;;;;;;;0.40;0.30;;;40.80;42.80;;;;;;5071076;28;20440;-78
2022/08/10 09:28:23;;;;;;;0.40;0.30;;;41.60;41.20;;;;;;5071429;28;20456;-78
2022/08/10 09:30:57;;;;;;;0.40;0.30;;;42.10;40.30;;;;;;5071391;28;20801;-78
2022/08/10 09:33:32;;;;;;;0.50;0.50;;;41.80;39.90;;;;;;5071611;28;20443;-78
2022/08/10 09:36:11;;;;;;;0.40;0.30;;;41.40;40.90;;;;;;5070646;28;20435;-78
2022/08/10 09:38:48;;;;;;;0.40;0.30;;;41.90;40.50;;;;;;5071169;28;20525;-78
2022/08/10 09:41:29;;;;;;;0.40;0.30;;;42.30;40.70;;;;;;5070823;28;20412;-78
2022/08/10 09:44:05;;;;;;;0.40;0.30;;;42.90;40.60;;;;;;5071164;28;20892;-73
2022/08/10 09:46:47;;;;;;;0.40;0.30;;;44.00;39.10;;;;;;5070713;28;20613;-78
2022/08/10 09:49:21;;;;;;;0.40;0.30;;;43.80;38.40;;;;;;5071128;28;20459;-78
2022/08/10 09:51:58;;;;;;;0.40;0.30;;;43.60;37.80;;;;;;5071325;28;20434;-78
2022/08/10 09:54:39;;;;;;;0.40;0.30;;;43.80;38.20;;;;;;5071038;28;20427;-78
2022/08/10 09:57:16;;;;;;;0.70;0.70;;;43.00;37.90;;;;;;5070875;28;20446;-77
2022/08/10 09:59:52;;;;;;;0.43;0.30;;;43.10;38.10;;;;;;5070679;28;20523;-78
2022/08/10 10:02:26;;;;;;;0.40;0.37;;;43.00;38.10;;;;;;5071322;28;20435;-77
2022/08/10 10:05:05;;;;;;;0.40;0.30;;;43.10;37.50;;;;;;5070703;28;20448;-78
2022/08/10 10:07:38;;;;;;;0.40;0.30;;;43.20;39.20;;;;;;5070508;28;20838;-78
2022/08/10 10:10:10;;;;;;;0.40;0.30;;;43.30;37.50;;;;;;5071225;28;20456;-78
2022/08/10 10:12:49;;;;;;;0.40;0.30;;;43.90;36.40;;;;;;5070229;28;20416;-78
2022/08/10 10:15:31;;;;;;;0.40;0.30;;;43.50;36.80;;;;;;5070867;28;20428;-77
2022/08/10 10:18:08;;;;;;;0.40;0.30;;;42.90;36.70;;;;;;5071147;28;20440;-76
2022/08/10 10:20:40;;;;;;;0.40;0.30;;;42.00;36.80;;;;;;5071124;28;20460;-78
2022/08/10 10:23:18;;;;;;;0.40;0.30;;;42.10;38.00;;;;;;5070558;28;20454;-77
2022/08/10 10:25:54;;;;;;;0.40;0.30;;;42.70;37.30;;;;;;5070841;28;20425;-76
2022/08/10 10:28:35;;;;;;;0.40;0.30;;;42.60;36.70;;;;;;5070728;28;20490;-76
2022/08/10 10:31:08;;;;;;;0.40;0.30;;;43.00;37.30;;;;;;5071115;28;20440;-73
2022/08/10 10:33:46;;;;;;;0.53;0.50;;;42.80;37.00;;;;;;5070185;28;20547;-76
2022/08/10 10:36:15;;;;;;;0.40;0.30;;;42.00;36.40;;;;;;5071006;28;20424;-76
2022/08/10 10:38:44;;;;;;;0.40;0.30;;;41.60;36.70;;;;;;5070902;28;20454;-73
2022/08/10 10:41:24;;;;;;;0.40;0.30;;;41.00;37.20;;;;;;5070168;28;20567;-74
2022/08/10 10:44:04;;;;;;;0.40;0.30;;;40.80;37.40;;;;;;5070712;28;20432;-76
2022/08/10 10:46:44;;;;;;;0.40;0.30;;;40.30;37.90;;;;;;5070507;28;20458;-75
2022/08/10 10:49:20;;;;;;;0.40;0.40;;;40.40;39.10;;;;;;5070657;28;20539;-76
2022/08/10 10:51:54;;;;;;;0.50;0.40;;;40.50;38.50;;;;;;5070243;28;20929;-75
2022/08/10 10:54:28;;;;;;;1.17;1.07;;;40.10;37.80;;;;;;5070652;28;20424;-76
2022/08/10 10:57:03;;;;;;;0.40;0.30;;;40.60;39.50;;;;;;5070523;28;20420;-75
2022/08/10 10:59:43;;;;;;;0.40;0.30;;;41.40;37.10;;;;;;5070791;28;20490;-76
2022/08/10 11:02:21;;;;;;;16.20;0.60;;;42.10;37.40;;;;;;5070290;28;20967;-74
2022/08/10 11:04:59;;;;;;;0.40;0.30;;;42.20;37.40;;;;;;5070290;28;20780;-74
2022/08/10 11:07:35;;;;;;;0.40;0.40;;;42.70;37.00;;;;;;5070589;28;20427;-76
2022/08/10 11:10:07;;;;;;;0.40;0.30;;;43.00;36.70;;;;;;5070402;28;20448;-76
2022/08/10 11:12:42;;;;;;;0.40;0.30;;;42.70;36.00;;;;;;5070372;28;20508;-77
2022/08/10 11:15:16;;;;;;;0.40;0.30;;;41.80;36.30;;;;;;5069994;28;20477;-75
2022/08/10 11:17:50;;;;;;;0.50;0.50;;;41.20;36.80;;;;;;5062359;28;20453;-78
2022/08/10 11:20:23;;;;;;;0.50;0.40;;;41.00;37.00;;;;;;5068687;28;20489;-78
2022/08/10 11:22:59;;;;;;;0.83;0.83;;;41.10;36.50;;;;;;5074399;28;20432;-78
2022/08/10 11:25:30;;;;;;;0.40;0.40;;;40.30;37.40;;;;;;5073206;28;20471;-77
2022/08/10 11:28:08;;;;;;;0.40;0.30;;;39.70;38.10;;;;;;5073752;28;20436;-75
2022/08/10 11:30:44;;;;;;;0.40;0.30;;;39.00;37.60;;;;;;5073645;28;20526;-78
2022/08/10 11:33:16;;;;;;;0.40;0.30;;;39.10;38.40;;;;;;5073848;28;20448;-78
2022/08/10 11:35:47;;;;;;;1.23;1.23;;;39.80;39.00;;;;;;5073780;28;20851;-78
2022/08/10 11:38:22;;;;;;;0.50;0.47;;;40.10;38.00;;;;;;5073511;28;20440;-78
2022/08/10 11:40:57;;;;;;;0.40;0.30;;;40.40;37.70;;;;;;5073108;28;20499;-77
2022/08/10 11:43:28;;;;;;;0.40;0.30;;;40.70;38.50;;;;;;5073288;28;20440;-78
2022/08/10 11:46:03;;;;;;;0.50;0.40;;;41.50;37.10;;;;;;5073393;28;20518;-76
2022/08/10 11:48:37;;;;;;;0.40;0.30;;;41.40;37.00;;;;;;5073466;28;20464;-75
2022/08/10 11:51:11;;;;;;;0.40;0.40;;;41.30;37.00;;;;;;5073711;28;20650;-75
2022/08/10 11:53:46;;;;;;;1.17;1.17;;;41.40;35.60;;;;;;5073473;28;20432;-77
2022/08/10 11:56:23;;;;;;;0.40;0.30;;;41.10;36.50;;;;;;5072683;28;20422;-78
2022/08/10 12:01:37;;;;;;;0.50;0.40;;;42.00;37.20;;;;;;5073283;28;20454;-78
2022/08/10 12:04:06;;;;;;;0.40;0.30;;;41.60;36.10;;;;;;5072918;28;20446;-78
2022/08/10 12:06:35;;;;;;;0.40;0.30;;;41.60;36.40;;;;;;5072836;28;20479;-77
2022/08/10 12:09:04;;;;;;;0.40;0.30;;;41.20;35.40;;;;;;5073037;28;20456;-78
2022/08/10 12:11:32;;;;;;;0.60;0.50;;;41.20;36.40;;;;;;5072843;28;20439;-77
2022/08/10 12:14:07;;;;;;;0.70;0.50;;;41.80;36.40;;;;;;5072854;28;20824;-78
2022/08/10 12:16:39;;;;;;;1.43;0.63;;;42.10;36.00;;;;;;5072696;28;20442;-78
2022/08/10 12:19:13;;;;;;;0.40;0.30;;;41.90;36.50;;;;;;5072474;28;20554;-76
2022/08/10 12:21:45;;;;;;;0.40;0.30;;;42.10;34.70;;;;;;5072139;28;20471;-78
2022/08/10 12:24:19;;;;;;;0.40;0.30;;;42.10;35.40;;;;;;5072066;28;20925;-78
2022/08/10 12:26:53;;;;;;;0.57;0.50;;;41.80;35.10;;;;;;5072703;28;20617;-78
2022/08/10 12:29:27;;;;;;;0.40;0.30;;;42.00;35.10;;;;;;5071885;28;20454;-78
2022/08/10 12:32:03;;;;;;;0.40;0.30;;;41.60;34.80;;;;;;5072565;28;20437;-76
2022/08/10 12:34:34;;;;;;;0.40;0.30;;;41.80;35.10;;;;;;5072364;28;20929;-78
2022/08/10 12:37:07;;;;;;;0.40;0.30;;;42.20;34.90;;;;;;5072449;28;21020;-78
2022/08/10 12:39:43;;;;;;;0.40;0.30;;;42.30;33.70;;;;;;5072553;28;20964;-78
2022/08/10 12:42:21;;;;;;;0.50;0.40;;;42.00;33.40;;;;;;5071874;28;20436;-78
2022/08/10 12:44:54;;;;;;;0.40;0.30;;;42.00;34.30;;;;;;5072283;28;20432;-78
2022/08/10 12:47:31;;;;;;;0.40;0.30;;;42.30;35.00;;;;;;5072047;28;20464;-78
2022/08/10 12:50:06;;;;;;;0.40;0.30;;;42.40;33.40;;;;;;5072543;28;20877;-77
2022/08/10 12:52:42;;;;;;;0.50;0.50;;;42.10;34.40;;;;;;5072243;28;20463;-78
2022/08/10 12:55:10;;;;;;;0.40;0.30;;;42.30;34.80;;;;;;5071865;28;20440;-77
2022/08/10 12:57:40;;;;;;;0.40;0.30;;;42.30;33.50;;;;;;5072193;28;20494;-78
2022/08/10 13:00:10;;;;;;;0.40;0.30;;;41.40;33.70;;;;;;5071847;28;20472;-78
2022/08/10 13:02:41;;;;;;;0.40;0.30;;;40.60;34.30;;;;;;5072378;28;20489;-78
2022/08/10 13:05:10;;;;;;;0.40;0.30;;;40.50;35.50;;;;;;5071394;28;20513;-74
2022/08/10 13:07:40;;;;;;;0.40;0.30;;;41.10;35.40;;;;;;5071925;28;20800;-78
2022/08/10 13:10:12;;;;;;;0.40;0.30;;;41.40;34.90;;;;;;5072225;28;20449;-76
2022/08/10 13:12:43;;;;;;;0.40;0.30;;;41.90;35.40;;;;;;5071490;28;20431;-78
2022/08/10 13:15:16;;;;;;;0.50;0.43;;;42.10;34.50;;;;;;5071299;28;20424;-76
2022/08/10 13:17:48;;;;;;;0.40;0.30;;;42.30;34.10;;;;;;5071646;28;20428;-78